Time;durP1;ratioP1;P1;durP2;ratioP2;P2;SDS_P1;SDS_P2;PMS_P1;PMS_P2;Temp;Humidity;BMP_temperature;BMP_pressure;BME280_temperature;BME280_humidity;BME280_pressure;Samples;Min_cycle;Max_cycle;Signal;HPM_P1;HPM_P2
2021/10/03 00:00:29;;;;;;;2.42;1.73;;;;;;;15.20;78.66;98079.13;5034738;28;20072;-64
2021/10/03 00:03:25;;;;;;;3.50;2.25;;;;;;;15.21;79.06;98067.78;5034705;28;20611;-65
2021/10/03 00:06:20;;;;;;;2.33;1.77;;;;;;;15.22;78.58;98069.50;5034501;28;20055;-63
2021/10/03 00:09:04;;;;;;;1.60;1.50;;;;;;;15.24;78.95;98085.09;5034508;28;20620;-64
2021/10/03 00:11:49;;;;;;;2.05;1.65;;;;;;;15.25;78.85;98105.09;5035117;28;20048;-64
2021/10/03 00:14:45;;;;;;;2.92;1.95;;;;;;;15.26;79.08;98074.59;5034786;28;20057;-64
2021/10/03 00:17:43;;;;;;;1.58;1.48;;;;;;;15.26;78.76;98098.09;5034338;28;20052;-63
2021/10/03 00:20:42;;;;;;;1.70;1.42;;;;;;;15.27;78.89;98120.69;5033872;28;20045;-64
2021/10/03 00:23:34;;;;;;;1.70;1.40;;;;;;;15.27;78.95;98090.19;5034314;28;20048;-64
2021/10/03 00:26:24;;;;;;;2.03;1.65;;;;;;;15.29;78.83;98116.25;5033747;28;20053;-64
2021/10/03 00:29:23;;;;;;;1.40;1.30;;;;;;;15.29;79.23;98116.25;5033781;28;20467;-63
2021/10/03 00:32:07;;;;;;;1.70;1.30;;;;;;;15.29;78.98;98101.44;5033588;28;20607;-63
2021/10/03 00:34:52;;;;;;;;;;;;;;;15.29;78.84;98090.16;5034360;28;20056;-64
2021/10/03 00:37:50;;;;;;;4.28;1.60;;;;;;;15.27;79.09;98082.38;5033965;28;19978;-65
2021/10/03 00:40:44;;;;;;;1.30;1.10;;;;;;;15.27;79.12;98090.19;5034434;28;20044;-64
2021/10/03 00:43:40;;;;;;;4.38;1.15;;;;;;;15.29;79.37;98080.56;5034790;28;20507;-64
2021/10/03 00:46:41;;;;;;;1.33;1.20;;;;;;;15.28;79.10;98088.47;5033663;28;20048;-64
2021/10/03 00:49:39;;;;;;;1.75;1.40;;;;;;;15.28;79.30;98073.63;5034305;28;20052;-64
2021/10/03 00:52:35;;;;;;;2.85;1.30;;;;;;;15.29;79.17;98091.00;5033326;28;20132;-64
2021/10/03 00:55:20;;;;;;;1.30;1.20;;;;;;;15.29;79.13;98085.78;5034172;28;20055;-64
2021/10/03 00:58:05;;;;;;;1.33;1.23;;;;;;;15.31;79.25;98081.38;5034330;28;20049;-65
2021/10/03 01:00:49;;;;;;;;;;;;;;;15.31;79.42;98088.34;5035494;28;20084;-65
2021/10/03 01:03:44;;;;;;;1.48;1.10;;;;;;;15.30;79.20;98076.22;5033172;28;19935;-64
2021/10/03 01:06:41;;;;;;;1.20;1.10;;;;;;;15.31;79.15;98068.31;5033269;28;20048;-64
2021/10/03 01:09:37;;;;;;;1.33;1.10;;;;;;;15.31;78.98;98072.69;5033023;28;20052;-65
2021/10/03 01:12:33;;;;;;;1.08;0.98;;;;;;;15.33;79.45;98078.72;5033034;28;20099;-65
2021/10/03 01:15:28;;;;;;;1.27;1.17;;;;;;;15.34;79.54;98062.13;5033452;28;20140;-64
2021/10/03 01:18:25;;;;;;;1.27;1.08;;;;;;;15.34;79.46;98057.78;5033372;28;20532;-64
2021/10/03 01:21:15;;;;;;;1.23;1.13;;;;;;;15.35;79.39;98064.72;5033852;28;20594;-64
2021/10/03 01:23:59;;;;;;;1.13;1.02;;;;;;;15.33;79.50;98056.06;5033301;28;20115;-64
2021/10/03 01:26:43;;;;;;;;;;;;;;;15.34;79.38;98059.53;5033331;28;20048;-64
2021/10/03 01:29:41;;;;;;;2.03;1.35;;;;;;;15.33;79.46;98044.78;5033878;28;19924;-64
2021/10/03 01:32:39;;;;;;;2.45;1.48;;;;;;;15.35;79.48;98042.97;5033808;28;20396;-64
2021/10/03 01:35:38;;;;;;;2.15;1.27;;;;;;;15.35;79.66;98041.22;5034049;28;20452;-64
2021/10/03 01:38:33;;;;;;;1.77;1.50;;;;;;;15.36;79.53;98035.09;5033564;28;20052;-64
2021/10/03 01:41:26;;;;;;;2.13;1.50;;;;;;;15.36;79.88;98039.44;5032274;28;20044;-64
2021/10/03 01:44:21;;;;;;;2.35;1.40;;;;;;;15.36;79.69;98040.31;5033660;28;20049;-64
2021/10/03 01:47:13;;;;;;;3.30;1.40;;;;;;;15.37;79.73;98026.34;5033869;28;20071;-63
2021/10/03 01:49:57;;;;;;;2.92;2.05;;;;;;;15.39;79.71;98010.63;5032188;28;20132;-64
2021/10/03 01:52:41;;;;;;;1.33;1.23;;;;;;;15.40;79.50;98019.34;5032479;28;20551;-64
2021/10/03 01:55:38;;;;;;;1.40;1.30;;;;;;;15.40;79.55;98008.88;5033548;28;20160;-64
2021/10/03 01:58:35;;;;;;;2.90;1.67;;;;;;;15.38;79.97;98007.19;5033777;28;20080;-64
2021/10/03 02:01:46;;;;;;;3.47;1.48;;;;;;;15.39;79.63;98008.03;5032687;28;20088;-63
2021/10/03 02:04:41;;;;;;;6.93;1.65;;;;;;;15.40;79.80;97994.06;5033058;28;20049;-64
2021/10/03 02:07:34;;;;;;;3.25;2.08;;;;;;;15.40;79.77;97994.06;5033430;28;20455;-64
2021/10/03 02:10:29;;;;;;;3.00;1.95;;;;;;;15.40;79.83;97998.44;5032592;28;20100;-64
2021/10/03 02:13:15;;;;;;;2.90;2.25;;;;;;;15.40;79.78;97988.84;5032422;28;20052;-63
2021/10/03 02:16:01;;;;;;;2.40;1.98;;;;;;;15.40;79.64;97988.84;5032307;28;20084;-64
2021/10/03 02:18:46;;;;;;;2.60;2.17;;;;;;;15.40;79.79;98007.13;5035510;28;20119;-64
2021/10/03 02:21:42;;;;;;;2.38;2.15;;;;;;;15.40;79.79;97991.47;5037255;28;20052;-63
2021/10/03 02:24:35;;;;;;;2.95;2.50;;;;;;;15.40;79.87;97980.19;5036917;28;20450;-64
2021/10/03 02:27:33;;;;;;;3.50;2.30;;;;;;;15.38;79.92;97991.53;5036424;28;20103;-64
2021/10/03 02:30:28;;;;;;;5.78;2.83;;;;;;;15.38;79.74;97969.78;5036360;28;20083;-64
2021/10/03 02:33:26;;;;;;;5.95;2.60;;;;;;;15.38;79.75;97967.16;5035871;28;20137;-63
2021/10/03 02:36:15;;;;;;;3.70;2.72;;;;;;;15.37;79.48;98009.84;5036934;28;20044;-63
2021/10/03 02:39:05;;;;;;;4.85;2.67;;;;;;;15.37;79.48;97958.50;5037196;28;20416;-64
2021/10/03 02:41:49;;;;;;;3.90;3.10;;;;;;;15.35;79.42;97965.53;5036788;28;20472;-64
2021/10/03 02:44:33;;;;;;;5.93;3.33;;;;;;;15.35;79.15;97960.31;5035759;28;20080;-64
2021/10/03 02:47:25;;;;;;;3.60;3.05;;;;;;;15.34;79.37;97973.41;5036027;28;20052;-64
2021/10/03 02:50:17;;;;;;;4.93;3.20;;;;;;;15.34;79.54;97973.41;5037508;28;20563;-64
2021/10/03 02:53:13;;;;;;;6.55;3.60;;;;;;;15.34;79.37;97987.31;5036541;28;20055;-63
2021/10/03 02:56:08;;;;;;;4.63;3.72;;;;;;;15.33;79.28;97966.50;5036978;28;20121;-64
2021/10/03 02:59:03;;;;;;;4.72;3.38;;;;;;;15.31;79.48;97969.16;5036367;28;20111;-64
2021/10/03 03:01:53;;;;;;;7.13;4.00;;;;;;;15.33;78.98;97995.22;5036595;28;20112;-64
2021/10/03 03:04:51;;;;;;;4.57;3.55;;;;;;;15.31;79.26;97966.53;5035448;28;20128;-63
2021/10/03 03:07:37;;;;;;;6.57;3.95;;;;;;;15.33;79.25;97966.50;5035635;28;20048;-64
2021/10/03 03:10:30;;;;;;;5.43;3.38;;;;;;;15.31;79.17;97956.09;5036072;28;20086;-64
2021/10/03 03:13:17;;;;;;;5.07;3.95;;;;;;;15.31;79.29;97961.31;5036740;28;20106;-64
2021/10/03 03:16:04;;;;;;;5.00;3.72;;;;;;;15.31;79.04;97958.72;5036209;28;20080;-63
2021/10/03 03:18:59;;;;;;;7.65;3.88;;;;;;;15.32;78.95;97975.25;5036385;28;20558;-64
2021/10/03 03:21:52;;;;;;;6.78;4.55;;;;;;;15.30;78.99;97953.56;5035902;28;20111;-63
2021/10/03 03:24:49;;;;;;;5.82;3.60;;;;;;;15.30;79.06;97936.13;5035299;28;20048;-64
2021/10/03 03:27:44;;;;;;;7.63;4.28;;;;;;;15.29;79.07;97946.63;5035334;28;20630;-64
2021/10/03 03:30:29;;;;;;;5.22;3.80;;;;;;;15.30;79.10;97945.72;5035494;28;20053;-64
2021/10/03 03:33:18;;;;;;;7.47;4.18;;;;;;;15.29;79.08;97955.31;5035291;28;20096;-65
2021/10/03 03:36:10;;;;;;;5.97;4.38;;;;;;;15.29;78.92;97952.69;5035165;28;20103;-64
2021/10/03 03:39:05;;;;;;;5.63;4.00;;;;;;;15.29;79.22;97931.81;5035159;28;20111;-64
2021/10/03 03:41:55;;;;;;;7.68;4.05;;;;;;;15.31;78.92;97945.66;5035669;28;20049;-63
2021/10/03 03:44:51;;;;;;;5.32;4.20;;;;;;;15.30;79.44;97933.53;5034997;28;20393;-64
2021/10/03 03:47:43;;;;;;;6.53;4.03;;;;;;;15.31;78.93;97947.44;5035147;28;20091;-64
2021/10/03 03:50:29;;;;;;;9.32;4.28;;;;;;;15.31;78.98;97944.84;5034894;28;20099;-64
2021/10/03 03:53:17;;;;;;;6.60;3.80;;;;;;;15.30;78.94;97935.28;5034789;28;20523;-64
2021/10/03 03:56:08;;;;;;;8.27;4.45;;;;;;;15.30;78.88;97945.72;5034715;28;20053;-64
2021/10/03 03:59:00;;;;;;;6.72;4.50;;;;;;;15.28;78.89;97937.94;5034782;28;20128;-64
2021/10/03 04:01:45;;;;;;;6.43;3.90;;;;;;;15.28;78.58;97932.72;5034209;28;20060;-64
2021/10/03 04:04:32;;;;;;;6.18;4.40;;;;;;;15.28;78.92;97937.09;5034244;28;20044;-64
2021/10/03 04:07:24;;;;;;;7.22;4.35;;;;;;;15.28;78.61;97927.50;5034092;28;20550;-64
2021/10/03 04:10:14;;;;;;;5.28;3.45;;;;;;;15.28;78.70;97929.28;5034608;28;20056;-64
2021/10/03 04:13:07;;;;;;;8.23;4.75;;;;;;;15.28;78.79;97924.91;5034512;28;20080;-64
2021/10/03 04:15:53;;;;;;;5.75;4.07;;;;;;;15.27;78.76;97930.19;5033699;28;20133;-64
2021/10/03 04:18:37;;;;;;;6.13;4.78;;;;;;;15.27;78.80;97930.19;5034435;28;20115;-64
2021/10/03 04:21:21;;;;;;;;;;;;;;;15.26;78.71;97923.25;5034980;28;20131;-64
2021/10/03 04:24:14;;;;;;;5.75;4.72;;;;;;;15.23;78.72;97917.25;5034309;28;19920;-64
2021/10/03 04:27:12;;;;;;;8.68;4.07;;;;;;;15.23;78.70;97919.03;5034111;28;20075;-64
2021/10/03 04:30:02;;;;;;;7.13;4.25;;;;;;;15.23;78.63;97903.38;5034076;28;20053;-63
2021/10/03 04:32:46;;;;;;;7.18;4.43;;;;;;;15.24;78.63;97933.75;5034273;28;20103;-63
2021/10/03 04:35:38;;;;;;;5.55;4.57;;;;;;;15.23;78.44;97916.41;5033673;28;20060;-64
2021/10/03 04:38:31;;;;;;;6.65;4.88;;;;;;;15.22;78.75;97918.16;5034059;28;20504;-63
2021/10/03 04:41:18;;;;;;;10.73;4.65;;;;;;;15.20;78.63;97909.53;5033589;28;20048;-64
2021/10/03 04:44:02;;;;;;;7.97;5.15;;;;;;;15.21;78.66;97906.00;5033458;28;20481;-64
2021/10/03 04:46:46;;;;;;;7.43;5.47;;;;;;;15.22;78.36;97907.72;5033562;28;20175;-65
2021/10/03 04:49:33;;;;;;;8.18;4.43;;;;;;;15.22;78.61;97899.06;5033554;28;20408;-63
2021/10/03 04:52:31;;;;;;;6.90;4.80;;;;;;;15.21;78.22;97910.38;5033903;28;20099;-64
2021/10/03 04:55:27;;;;;;;7.07;4.75;;;;;;;15.21;78.58;97916.44;5033278;28;20486;-65
2021/10/03 04:58:16;;;;;;;5.30;4.47;;;;;;;15.20;78.63;97898.25;5033704;28;20048;-64
2021/10/03 05:01:01;;;;;;;7.60;4.63;;;;;;;15.22;78.40;97906.88;5033030;28;20076;-65
2021/10/03 05:03:47;;;;;;;;;;;;;;;15.19;78.46;97897.38;5034489;28;20133;-64
2021/10/03 05:06:32;;;;;;;5.97;4.50;;;;;;;15.18;78.58;97895.69;5033905;28;20327;-64
2021/10/03 05:09:21;;;;;;;7.80;4.63;;;;;;;15.18;78.47;97905.28;5033297;28;20091;-64
2021/10/03 05:12:14;;;;;;;9.60;5.10;;;;;;;15.18;78.40;97887.84;5033902;28;20582;-64
2021/10/03 05:15:06;;;;;;;6.55;5.03;;;;;;;15.18;78.45;97894.84;5033224;28;20139;-65
2021/10/03 05:17:58;;;;;;;5.43;4.40;;;;;;;15.19;78.16;97894.78;5032979;28;20052;-64
2021/10/03 05:20:50;;;;;;;5.15;4.43;;;;;;;15.20;78.34;97880.81;5033307;28;20053;-64
2021/10/03 05:23:43;;;;;;;6.00;4.40;;;;;;;15.20;78.42;97891.25;5033947;28;20470;-64
2021/10/03 05:26:31;;;;;;;7.50;4.55;;;;;;;15.19;78.36;97886.94;5032568;28;20129;-64
2021/10/03 05:29:20;;;;;;;7.40;5.03;;;;;;;15.21;78.26;97906.00;5034190;28;20052;-64
2021/10/03 05:32:07;;;;;;;7.68;5.07;;;;;;;15.21;78.40;97890.34;5032977;28;20520;-64
2021/10/03 05:34:56;;;;;;;6.95;4.82;;;;;;;15.22;78.36;97886.00;5033065;28;20103;-63
2021/10/03 05:37:50;;;;;;;6.80;4.72;;;;;;;15.23;78.32;97887.72;5032892;28;20053;-64
2021/10/03 05:40:40;;;;;;;5.80;4.65;;;;;;;15.23;78.45;97898.16;5033737;28;20060;-64
2021/10/03 05:43:36;;;;;;;8.23;4.32;;;;;;;15.22;78.46;97878.19;5032466;28;20091;-64
2021/10/03 05:46:31;;;;;;;6.05;4.55;;;;;;;15.23;78.31;97893.75;5032478;28;20440;-63
2021/10/03 05:49:18;;;;;;;6.13;5.18;;;;;;;15.23;78.42;97885.94;5033182;28;20555;-64
2021/10/03 05:52:08;;;;;;;7.90;4.68;;;;;;;15.23;78.39;97898.97;5031739;28;20103;-64
2021/10/03 05:55:00;;;;;;;7.07;5.07;;;;;;;15.24;78.48;97884.19;5032716;28;20052;-64
2021/10/03 05:57:44;;;;;;;9.63;5.07;;;;;;;15.23;78.44;97880.72;5033310;28;20060;-64
2021/10/03 06:00:37;;;;;;;8.27;5.38;;;;;;;15.24;78.52;97878.97;5032327;28;20448;-64
2021/10/03 06:03:23;;;;;;;9.00;5.97;;;;;;;15.23;78.57;97885.94;5032061;28;20516;-64
2021/10/03 06:06:18;;;;;;;7.03;5.32;;;;;;;15.24;78.41;97902.47;5032076;28;20156;-64
2021/10/03 06:09:11;;;;;;;7.97;4.93;;;;;;;15.25;78.48;97898.06;5032822;28;20064;-64
2021/10/03 06:12:07;;;;;;;8.32;5.38;;;;;;;15.25;78.47;97896.34;5032495;28;20524;-65
2021/10/03 06:14:51;;;;;;;6.22;4.82;;;;;;;15.28;78.50;97897.97;5032167;28;20052;-64
2021/10/03 06:17:36;;;;;;;;;;;;;;;15.27;78.52;97919.75;5033242;28;20518;-64
2021/10/03 06:20:21;;;;;;;;;;;;;;;15.26;78.43;97902.38;5032906;28;19963;-65
2021/10/03 06:23:09;;;;;;;8.75;5.63;;;;;;;15.26;78.67;97900.63;5033498;28;19971;-64
2021/10/03 06:25:53;;;;;;;7.80;6.13;;;;;;;15.26;78.54;97902.38;5032059;28;20615;-64
2021/10/03 06:28:39;;;;;;;10.20;5.70;;;;;;;15.27;78.53;97901.47;5033255;28;20522;-64
2021/10/03 06:31:29;;;;;;;7.18;5.97;;;;;;;15.28;78.29;97890.13;5033446;28;20539;-64
2021/10/03 06:34:16;;;;;;;10.48;6.03;;;;;;;15.29;78.45;97897.06;5032273;28;20049;-64
2021/10/03 06:37:01;;;;;;;8.20;6.05;;;;;;;15.30;78.31;97872.66;5032107;28;20084;-64
2021/10/03 06:39:48;;;;;;;9.75;6.47;;;;;;;15.32;78.64;97886.50;5032350;28;20055;-64
2021/10/03 06:42:35;;;;;;;10.30;5.72;;;;;;;15.32;78.65;97891.72;5032286;28;20084;-64
2021/10/03 06:45:20;;;;;;;7.30;5.10;;;;;;;15.32;78.43;97882.13;5031659;28;20519;-64
2021/10/03 06:48:13;;;;;;;;;;;;;;;15.32;78.59;97895.19;5032076;28;20049;-64
2021/10/03 06:51:00;;;;;;;12.13;5.45;;;;;;;15.31;78.28;97885.66;5032151;28;19920;-64
2021/10/03 06:53:46;;;;;;;8.57;5.78;;;;;;;15.33;78.66;97894.28;5031865;28;20048;-64
2021/10/03 06:56:30;;;;;;;7.68;5.68;;;;;;;15.33;78.61;97893.44;5032754;28;20064;-64
2021/10/03 06:59:20;;;;;;;9.65;6.32;;;;;;;15.34;78.40;97895.97;5031951;28;20052;-64
2021/10/03 07:02:17;;;;;;;9.65;6.65;;;;;;;15.35;78.64;97926.38;5032686;28;20069;-64
2021/10/03 07:05:03;;;;;;;13.85;6.57;;;;;;;15.36;78.75;97912.44;5033656;28;20075;-64
2021/10/03 07:07:47;;;;;;;9.50;6.55;;;;;;;15.38;78.70;97912.34;5035283;28;20087;-64
2021/10/03 07:10:37;;;;;;;11.82;6.90;;;;;;;15.39;78.80;97914.06;5035304;28;20048;-63
2021/10/03 07:13:20;;;;;;;9.73;6.68;;;;;;;15.40;78.70;97910.53;5034860;28;20052;-64
2021/10/03 07:16:04;;;;;;;9.10;6.38;;;;;;;15.40;78.80;97909.72;5035326;28;20143;-64
2021/10/03 07:18:51;;;;;;;;;;;;;;;15.38;78.73;97931.50;5036642;28;20049;-64
2021/10/03 07:21:38;;;;;;;8.63;6.47;;;;;;;15.39;78.98;97908.84;5035090;28;20330;-64
2021/10/03 07:24:27;;;;;;;11.52;7.20;;;;;;;15.40;78.86;97910.53;5035102;28;20103;-64
2021/10/03 07:27:15;;;;;;;8.23;6.25;;;;;;;15.40;78.80;97923.59;5035342;28;20040;-64
2021/10/03 07:29:59;;;;;;;12.40;8.27;;;;;;;15.42;79.04;97927.00;5036036;28;20056;-64
2021/10/03 07:32:43;;;;;;;;;;;;;;;15.41;79.04;97930.53;5035324;28;20095;-64
2021/10/03 07:35:30;;;;;;;10.32;6.40;;;;;;;15.42;78.96;97910.47;5035024;28;19920;-64
2021/10/03 07:38:22;;;;;;;11.63;6.75;;;;;;;15.41;79.04;97912.25;5034505;28;20106;-64
2021/10/03 07:41:15;;;;;;;10.10;7.10;;;;;;;15.41;79.28;97922.69;5035250;28;20095;-63
2021/10/03 07:44:04;;;;;;;9.98;7.03;;;;;;;15.43;79.22;97906.97;5035436;28;20434;-64
2021/10/03 07:46:57;;;;;;;8.43;6.65;;;;;;;15.42;79.09;97919.16;5035672;28;20124;-64
2021/10/03 07:49:47;;;;;;;9.75;7.22;;;;;;;15.43;79.09;97900.00;5034567;28;20053;-64
2021/10/03 07:52:39;;;;;;;10.18;6.78;;;;;;;15.44;79.19;97912.13;5034971;28;20048;-65
2021/10/03 07:55:28;;;;;;;10.73;6.43;;;;;;;15.45;79.34;97886.88;5035163;28;20207;-64
2021/10/03 07:58:13;;;;;;;12.73;6.80;;;;;;;15.46;79.20;97897.28;5035604;28;20048;-64
2021/10/03 08:01:02;;;;;;;;;;;;;;;15.46;79.20;97884.22;5034795;28;20072;-64
2021/10/03 08:03:58;;;;;;;9.90;6.72;;;;;;;15.45;79.26;97892.97;5034270;28;19923;-64
2021/10/03 08:06:50;;;;;;;16.42;7.38;;;;;;;15.46;79.38;97889.44;5034610;28;20072;-64
2021/10/03 08:09:35;;;;;;;10.43;7.18;;;;;;;15.47;79.16;97898.97;5035536;28;20087;-64
2021/10/03 08:12:19;;;;;;;8.95;7.07;;;;;;;15.49;79.61;97893.69;5034639;28;20052;-63
2021/10/03 08:15:03;;;;;;;;;;;;;;;15.49;79.15;97891.91;5034400;28;20056;-64
2021/10/03 08:17:48;;;;;;;8.88;6.70;;;;;;;15.49;79.23;97884.09;5034486;28;19963;-64
2021/10/03 08:20:32;;;;;;;;;;;;;;;15.49;79.36;97897.13;5034853;28;20168;-64
2021/10/03 08:23:20;;;;;;;10.20;6.90;;;;;;;15.50;79.25;97901.44;5034925;28;20284;-64
2021/10/03 08:26:10;;;;;;;10.75;7.13;;;;;;;15.51;79.38;97903.16;5034099;28;20056;-64
2021/10/03 08:28:57;;;;;;;8.07;6.35;;;;;;;15.55;79.51;97910.88;5033777;28;20554;-64
2021/10/03 08:31:41;;;;;;;7.45;5.95;;;;;;;15.55;79.36;97909.13;5034428;28;20053;-64
2021/10/03 08:34:33;;;;;;;12.07;6.63;;;;;;;15.57;79.39;97911.66;5035127;28;20412;-64
2021/10/03 08:37:28;;;;;;;9.77;6.50;;;;;;;15.57;79.53;97941.22;5035007;28;20115;-64
2021/10/03 08:40:16;;;;;;;8.90;6.15;;;;;;;15.59;79.49;97938.56;5034273;28;20539;-64
2021/10/03 08:43:07;;;;;;;8.45;6.20;;;;;;;15.62;79.57;97917.56;5033560;28;20472;-64
2021/10/03 08:45:53;;;;;;;8.82;6.80;;;;;;;15.63;79.31;97911.44;5034055;28;20099;-63
2021/10/03 08:48:40;;;;;;;11.02;6.72;;;;;;;15.63;79.43;97919.28;5033904;28;20048;-64
2021/10/03 08:51:28;;;;;;;9.75;7.25;;;;;;;15.64;79.56;97918.38;5033818;28;20463;-64
2021/10/03 08:54:14;;;;;;;9.85;6.00;;;;;;;15.64;79.41;97927.03;5034665;28;20127;-64
2021/10/03 08:56:58;;;;;;;8.20;5.93;;;;;;;15.65;79.53;97914.81;5034060;28;20100;-63
2021/10/03 09:00:12;;;;;;;8.13;5.78;;;;;;;15.66;79.45;97926.97;5033680;28;20057;-64
2021/10/03 09:03:06;;;;;;;8.00;6.30;;;;;;;15.66;79.46;97926.97;5032891;28;20092;-64
2021/10/03 09:05:57;;;;;;;8.05;6.88;;;;;;;15.66;79.40;97933.06;5033349;28;20048;-65
2021/10/03 09:08:47;;;;;;;7.70;5.72;;;;;;;15.67;79.33;97952.16;5034174;28;20173;-64
2021/10/03 09:11:37;;;;;;;8.88;6.72;;;;;;;15.67;79.52;97945.19;5033591;28;20416;-64
2021/10/03 09:14:38;;;;;;;9.25;6.07;;;;;;;15.68;79.61;97977.38;5033634;28;20052;-64
2021/10/03 09:17:34;;;;;;;8.13;5.68;;;;;;;15.69;79.63;97963.41;5033374;28;20508;-64
2021/10/03 09:20:31;;;;;;;9.45;7.10;;;;;;;15.70;79.65;97967.72;5033417;28;20137;-64
2021/10/03 09:23:21;;;;;;;8.57;6.50;;;;;;;15.72;79.55;97965.91;5033252;28;20421;-64
2021/10/03 09:26:11;;;;;;;6.90;6.10;;;;;;;15.73;79.63;97970.22;5032531;28;20048;-64
2021/10/03 09:28:55;;;;;;;8.00;7.18;;;;;;;15.74;79.65;97965.84;5032673;28;20532;-64
2021/10/03 09:32:01;;;;;;;;;;;;;;;15.74;79.75;97971.94;5034062;28;20107;-64
2021/10/03 09:34:59;;;;;;;10.05;6.57;;;;;;;15.72;79.72;97985.97;5032585;28;20403;-65
2021/10/03 09:37:56;;;;;;;8.38;6.60;;;;;;;15.73;80.15;97996.34;5032524;28;20092;-64
2021/10/03 09:41:07;;;;;;;9.23;7.03;;;;;;;15.74;79.77;97997.19;5032869;28;20437;-64
2021/10/03 09:44:07;;;;;;;8.75;5.28;;;;;;;15.74;79.62;98003.25;5033666;28;20582;-65
2021/10/03 09:46:56;;;;;;;9.65;7.03;;;;;;;15.74;79.83;98013.72;5032440;28;20048;-63
2021/10/03 09:49:44;;;;;;;9.82;6.75;;;;;;;15.75;79.76;98041.53;5032108;28;20061;-64
2021/10/03 09:52:36;;;;;;;11.32;8.27;;;;;;;15.76;80.04;98011.03;5033367;28;20048;-64
2021/10/03 09:55:29;;;;;;;9.00;7.03;;;;;;;15.76;79.78;98027.56;5033024;28;20061;-64
2021/10/03 09:58:24;;;;;;;10.40;7.65;;;;;;;15.77;79.74;98044.94;5032314;28;20064;-65
2021/10/03 10:01:22;;;;;;;9.82;7.88;;;;;;;15.77;79.83;98037.09;5032940;28;20460;-65
2021/10/03 10:04:12;;;;;;;10.57;6.93;;;;;;;15.78;79.99;98045.78;5033559;28;20121;-64
2021/10/03 10:07:05;;;;;;;9.68;6.80;;;;;;;15.77;79.74;98051.91;5031902;28;20052;-64
2021/10/03 10:10:01;;;;;;;8.63;6.70;;;;;;;15.76;79.81;98051.06;5033084;28;20091;-64
2021/10/03 10:12:55;;;;;;;8.65;6.55;;;;;;;15.76;79.88;98052.81;5032169;28;20102;-64
2021/10/03 10:15:39;;;;;;;9.52;6.15;;;;;;;15.77;79.87;98051.91;5032687;28;20051;-64
2021/10/03 10:18:36;;;;;;;9.18;7.00;;;;;;;15.77;79.86;98065.84;5033348;28;20123;-64
2021/10/03 10:21:34;;;;;;;9.70;6.82;;;;;;;15.78;80.17;98053.59;5033084;28;20091;-65
2021/10/03 10:24:43;;;;;;;9.60;6.30;;;;;;;15.76;79.89;98053.69;5032135;28;20456;-65
2021/10/03 10:27:36;;;;;;;10.98;6.80;;;;;;;15.77;80.07;98057.13;5033463;28;20115;-63
2021/10/03 10:30:29;;;;;;;8.68;6.60;;;;;;;15.78;79.95;98070.16;5033085;28;20171;-64
2021/10/03 10:33:28;;;;;;;11.98;8.35;;;;;;;15.79;80.06;98057.94;5018310;28;20052;-64
2021/10/03 10:36:26;;;;;;;11.07;7.22;;;;;;;15.79;80.05;98064.03;5033337;28;20571;-64
2021/10/03 10:39:14;;;;;;;8.43;6.07;;;;;;;15.79;80.12;98053.56;5034474;28;20044;-64
2021/10/03 10:42:02;;;;;;;8.13;6.38;;;;;;;15.79;80.19;98068.38;5035912;28;20123;-64
2021/10/03 10:44:49;;;;;;;12.35;6.35;;;;;;;15.79;80.05;98064.03;5035638;28;20052;-64
2021/10/03 10:47:42;;;;;;;10.02;7.07;;;;;;;15.81;80.21;98067.41;5035808;28;20127;-63
2021/10/03 10:50:43;;;;;;;8.18;6.35;;;;;;;15.80;80.13;98051.81;5036166;28;20100;-64
2021/10/03 10:53:39;;;;;;;8.27;7.07;;;;;;;15.80;80.32;98051.81;5036779;28;20051;-64
2021/10/03 10:56:39;;;;;;;8.60;7.13;;;;;;;15.82;80.25;98066.50;5035505;28;20543;-65
2021/10/03 10:59:34;;;;;;;7.40;6.60;;;;;;;15.82;80.18;98076.94;5036130;28;20056;-64
2021/10/03 11:02:58;;;;;;;9.13;7.10;;;;;;;15.83;80.30;98078.66;5035777;28;20060;-65
2021/10/03 11:05:51;;;;;;;8.63;6.35;;;;;;;15.84;80.22;98067.28;5035987;28;20080;-64
2021/10/03 11:08:57;;;;;;;8.60;6.97;;;;;;;15.84;80.30;98074.28;5035811;28;20103;-64
2021/10/03 11:11:55;;;;;;;12.93;6.53;;;;;;;15.84;80.43;98062.06;5036179;28;20115;-64
2021/10/03 11:14:48;;;;;;;9.68;6.32;;;;;;;15.85;80.41;98068.19;5035897;28;20056;-65
2021/10/03 11:17:44;;;;;;;12.90;6.57;;;;;;;15.86;80.42;98069.03;5035690;28;20076;-64
2021/10/03 11:20:57;;;;;;;10.35;6.82;;;;;;;15.87;80.36;98073.34;5035342;28;20095;-65
2021/10/03 11:23:53;;;;;;;8.13;6.28;;;;;;;15.88;80.29;98085.50;5036043;28;20057;-64
2021/10/03 11:27:05;;;;;;;7.72;6.70;;;;;;;15.86;80.41;98093.41;5034896;28;20417;-64
2021/10/03 11:29:52;;;;;;;11.70;6.45;;;;;;;15.88;80.45;98094.22;5034985;28;20112;-64
2021/10/03 11:32:39;;;;;;;8.63;6.35;;;;;;;15.89;80.39;98105.50;5035284;28;20090;-64
2021/10/03 11:35:25;;;;;;;8.32;6.32;;;;;;;15.90;80.43;98097.59;5036126;28;20451;-65
2021/10/03 11:38:10;;;;;;;8.75;6.10;;;;;;;15.89;80.17;98101.09;5034928;28;20511;-65
2021/10/03 11:41:13;;;;;;;8.88;5.82;;;;;;;15.89;80.53;98114.16;5035192;28;20397;-64
2021/10/03 11:44:19;;;;;;;7.05;5.30;;;;;;;15.90;80.23;98122.88;5035148;28;20056;-64
2021/10/03 11:47:17;;;;;;;7.07;5.65;;;;;;;15.89;80.59;98114.16;5035714;28;20076;-65
2021/10/03 11:50:16;;;;;;;7.22;5.05;;;;;;;15.89;80.53;98108.09;5033708;28;20107;-66
2021/10/03 11:53:20;;;;;;;6.38;5.57;;;;;;;15.89;80.40;98121.16;5034569;28;20091;-64
2021/10/03 11:56:11;;;;;;;8.80;5.22;;;;;;;15.90;80.67;98130.72;5034487;28;20408;-64
2021/10/03 11:58:57;;;;;;;6.50;4.90;;;;;;;15.89;80.52;98121.16;5034631;28;20048;-64
2021/10/03 12:01:41;;;;;;;8.45;5.13;;;;;;;15.90;80.43;98128.09;5035176;28;20047;-64
2021/10/03 12:04:25;;;;;;;;;;;;;;;15.88;80.56;98149.06;5035995;28;20068;-65
2021/10/03 12:07:15;;;;;;;6.43;5.20;;;;;;;15.87;80.55;98146.47;5035442;28;19943;-65
2021/10/03 12:10:14;;;;;;;8.75;5.13;;;;;;;15.88;80.73;98150.81;5035583;28;20048;-64
2021/10/03 12:13:11;;;;;;;6.45;4.80;;;;;;;15.89;80.39;98189.09;5034989;28;20107;-64
2021/10/03 12:16:29;;;;;;;7.13;5.00;;;;;;;15.90;80.66;98178.56;5034100;28;20099;-64
2021/10/03 12:19:23;;;;;;;5.80;4.63;;;;;;;15.91;80.80;98185.50;5034205;28;20574;-64
2021/10/03 12:22:10;;;;;;;6.82;4.80;;;;;;;15.92;80.65;98186.38;5035096;28;20098;-65
2021/10/03 12:25:02;;;;;;;7.57;5.05;;;;;;;15.93;80.84;98177.63;5035214;28;20508;-64
2021/10/03 12:27:59;;;;;;;6.20;3.88;;;;;;;15.92;80.67;98189.81;5034481;28;20048;-64
2021/10/03 12:30:54;;;;;;;5.53;3.90;;;;;;;15.93;80.84;98201.97;5033789;28;20048;-64
2021/10/03 12:33:43;;;;;;;4.95;3.83;;;;;;;15.95;80.84;98215.00;5034703;28;20056;-64
2021/10/03 12:36:36;;;;;;;5.88;4.38;;;;;;;15.94;80.76;98208.91;5034155;28;20064;-63
2021/10/03 12:39:37;;;;;;;4.63;4.05;;;;;;;15.94;80.89;98208.91;5033549;28;20092;-64
2021/10/03 12:42:26;;;;;;;8.90;4.85;;;;;;;15.95;80.80;98228.06;5033712;28;20137;-64
2021/10/03 12:45:19;;;;;;;8.30;4.90;;;;;;;15.94;80.94;98237.63;5033485;28;20135;-65
2021/10/03 12:48:15;;;;;;;5.25;3.40;;;;;;;15.96;80.89;98220.16;5033876;28;20052;-65
2021/10/03 12:50:59;;;;;;;5.40;3.28;;;;;;;15.95;80.75;98217.63;5034361;28;20052;-64
2021/10/03 12:53:53;;;;;;;6.38;3.85;;;;;;;15.96;80.67;98248.91;5033874;28;20068;-63
2021/10/03 12:56:45;;;;;;;5.10;3.60;;;;;;;15.97;80.87;98244.50;5033757;28;20137;-64
2021/10/03 12:59:35;;;;;;;3.70;3.20;;;;;;;15.97;80.79;98244.50;5033465;28;20167;-63
2021/10/03 13:02:24;;;;;;;5.95;3.60;;;;;;;15.96;80.68;98232.38;5032576;28;20064;-64
2021/10/03 13:05:19;;;;;;;4.63;2.97;;;;;;;15.96;80.94;98251.50;5034183;28;20049;-65
2021/10/03 13:08:14;;;;;;;4.00;2.80;;;;;;;15.97;80.76;98239.28;5033395;28;20052;-63
2021/10/03 13:11:13;;;;;;;3.00;2.70;;;;;;;15.95;80.90;98257.63;5032727;28;20095;-64
2021/10/03 13:14:00;;;;;;;3.53;2.40;;;;;;;15.95;80.81;98268.09;5033238;28;20049;-64
2021/10/03 13:16:44;;;;;;;3.13;2.50;;;;;;;15.93;80.88;98282.94;5032972;28;20048;-64
2021/10/03 13:19:33;;;;;;;3.35;2.20;;;;;;;15.93;80.67;98282.13;5034118;28;20053;-64
2021/10/03 13:22:28;;;;;;;2.70;1.95;;;;;;;15.93;80.72;98282.94;5033326;28;20049;-65
2021/10/03 13:25:17;;;;;;;;;;;;;;;15.92;80.63;98299.53;5034574;28;20064;-65
2021/10/03 13:28:12;;;;;;;2.22;1.63;;;;;;;15.86;80.81;98320.66;5033452;28;19924;-64
2021/10/03 13:31:11;;;;;;;1.95;1.60;;;;;;;15.77;80.75;98353.13;5034074;28;20519;-64